createdAt,value
2022-10-04T00:02:10.442Z,100575.66
2022-10-04T00:05:16.160Z,100566.81
2022-10-04T00:08:28.666Z,100574.66
2022-10-04T00:11:35.799Z,100576.56
2022-10-04T00:14:39.640Z,100569.28
2022-10-04T00:17:42.085Z,100584.16
2022-10-04T00:20:53.641Z,100586.13
2022-10-04T00:24:09.291Z,100577.75
2022-10-04T00:27:24.891Z,100588.56
2022-10-04T00:30:36.341Z,100573.69
2022-10-04T00:33:43.672Z,100581.41
2022-10-04T00:36:54.314Z,100576.41
2022-10-04T00:40:02.902Z,100580.59
2022-10-04T00:43:14.013Z,100571.53
2022-10-04T00:46:21.066Z,100575.47
2022-10-04T00:49:26.166Z,100558.34
2022-10-04T00:52:33.801Z,100566.66
2022-10-04T00:55:40.229Z,100555.03
2022-10-04T00:59:03.903Z,100547.03
2022-10-04T01:02:13.241Z,100555.28
2022-10-04T01:05:19.886Z,100551.38
2022-10-04T01:08:31.344Z,100558.31
2022-10-04T01:11:41.530Z,100557.53
2022-10-04T01:14:50.176Z,100555.03
2022-10-04T01:18:09.768Z,100549.44
2022-10-04T01:21:21.536Z,100547.19
2022-10-04T01:24:24.317Z,100549.63
2022-10-04T01:27:47.020Z,100544.12
2022-10-04T01:30:49.563Z,100547.53
2022-10-04T01:33:52.597Z,100547.94
2022-10-04T01:36:59.368Z,100538.25
2022-10-04T01:40:02.266Z,100538.97
2022-10-04T01:43:07.313Z,100538.84
2022-10-04T01:46:09.873Z,100537.12
2022-10-04T01:49:16.456Z,100530.12
2022-10-04T01:52:23.903Z,100532.84
2022-10-04T01:55:29.590Z,100528.66
2022-10-04T01:58:52.611Z,100536.63
2022-10-04T02:01:59.345Z,100541.78
2022-10-04T02:05:03.077Z,100540.09
2022-10-04T02:08:07.775Z,100535.56
2022-10-04T02:11:10.406Z,100537.16
2022-10-04T02:14:18.498Z,100537.22
2022-10-04T02:17:23.311Z,100543.41
2022-10-04T02:20:26.689Z,100547.44
2022-10-04T02:23:29.492Z,100548.25
2022-10-04T02:26:32.396Z,100556.22
2022-10-04T02:29:34.955Z,100554.53
2022-10-04T02:32:57.759Z,100565.91
2022-10-04T02:36:00.500Z,100557.25
2022-10-04T02:39:05.123Z,100560.66
2022-10-04T02:42:21.771Z,100560.03
2022-10-04T02:45:26.999Z,100556.31
2022-10-04T02:48:34.215Z,100556.72
2022-10-04T02:51:36.539Z,100557.31
2022-10-04T02:54:42.119Z,100554.63
2022-10-04T02:57:44.860Z,100549.53
2022-10-04T03:00:49.922Z,100547.62
2022-10-04T03:03:54.150Z,100545.75
2022-10-04T03:06:59.091Z,100542.19
2022-10-04T03:10:02.883Z,100558.44
2022-10-04T03:13:05.400Z,100557.88
2022-10-04T03:16:08.406Z,100554.12
2022-10-04T03:19:12.358Z,100552.41
2022-10-04T03:22:15.122Z,100543.72
2022-10-04T03:25:21.344Z,100532.28
2022-10-04T03:28:23.877Z,100544.38
2022-10-04T03:31:27.855Z,100550.53
2022-10-04T03:34:33.030Z,100555.47
2022-10-04T03:37:37.633Z,100545.28
2022-10-04T03:40:42.191Z,100548.63
2022-10-04T03:43:45.738Z,100547.84
2022-10-04T03:46:48.728Z,100546.19
2022-10-04T03:49:52.378Z,100541.53
2022-10-04T03:53:00.015Z,100553.72
2022-10-04T03:56:08.523Z,100539.69
2022-10-04T03:59:14.093Z,100540.66
2022-10-04T04:02:20.952Z,100541.06
2022-10-04T04:05:36.698Z,100545.19
2022-10-04T04:08:42.268Z,100540.84
2022-10-04T04:11:47.887Z,100540.78
2022-10-04T04:14:51.475Z,100539.97
2022-10-04T04:17:55.140Z,100548.38
2022-10-04T04:20:59.396Z,100544.28
2022-10-04T04:24:05.325Z,100548.50
2022-10-04T04:27:10.500Z,100550.19
2022-10-04T04:30:16.983Z,100557.19
2022-10-04T04:33:26.895Z,100563.34
2022-10-04T04:36:33.403Z,100572.25
2022-10-04T04:39:39.830Z,100565.41
2022-10-04T04:42:45.609Z,100557.88
2022-10-04T04:46:02.931Z,100559.94
2022-10-04T04:49:15.232Z,100559.94
2022-10-04T04:52:19.662Z,100561.91
2022-10-04T04:55:44.689Z,100565.66
2022-10-04T04:58:57.286Z,100565.72
2022-10-04T05:02:00.019Z,100573.03
2022-10-04T05:05:18.930Z,100581.06
2022-10-04T05:08:23.113Z,100584.56
2022-10-04T05:11:29.524Z,100574.53
2022-10-04T05:14:32.462Z,100578.19
2022-10-04T05:17:35.161Z,100575.22
2022-10-04T05:20:38.034Z,100576.25
2022-10-04T05:23:40.293Z,100592.13
2022-10-04T05:26:43.123Z,100587.41
2022-10-04T05:29:57.770Z,100592.50
2022-10-04T05:33:14.638Z,100599.66
2022-10-04T05:36:35.480Z,100605.38
2022-10-04T05:39:45.109Z,100598.94
2022-10-04T05:42:48.138Z,100604.72
2022-10-04T05:46:09.636Z,100594.44
2022-10-04T05:49:19.005Z,100622.50
2022-10-04T05:52:25.188Z,100613.19
2022-10-04T05:55:29.011Z,100618.78
2022-10-04T05:58:45.724Z,100618.81
2022-10-04T06:01:57.105Z,100626.06
2022-10-04T06:05:02.505Z,100616.53
2022-10-04T06:08:16.974Z,100629.81
2022-10-04T06:11:32.110Z,100636.06
2022-10-04T06:14:54.910Z,100637.31
2022-10-04T06:18:00.655Z,100644.50
2022-10-04T06:21:02.801Z,100648.22
2022-10-04T06:24:11.210Z,100651.41
2022-10-04T06:27:16.285Z,100654.75
2022-10-04T06:30:19.614Z,100652.12
2022-10-04T06:33:21.785Z,100656.12
2022-10-04T06:36:41.129Z,100654.75
2022-10-04T06:40:06.484Z,100653.84
2022-10-04T06:43:19.704Z,100655.59
2022-10-04T06:46:21.989Z,100637.69
2022-10-04T06:49:33.575Z,100629.94
2022-10-04T06:52:49.851Z,100631.09
2022-10-04T06:55:55.442Z,100640.81
2022-10-04T06:59:08.079Z,100653.38
2022-10-04T07:02:21.123Z,100654.66
2022-10-04T07:05:30.532Z,100659.31
2022-10-04T07:08:34.167Z,100667.69
2022-10-04T07:11:43.526Z,100671.94
2022-10-04T07:14:51.984Z,100675.69
2022-10-04T07:17:56.425Z,100679.12
2022-10-04T07:21:03.208Z,100687.75
2022-10-04T07:24:09.069Z,100686.97
2022-10-04T07:27:16.372Z,100689.41
2022-10-04T07:30:20.721Z,100697.06
2022-10-04T07:33:25.065Z,100699.34
2022-10-04T07:36:27.305Z,100691.59
2022-10-04T07:39:34.610Z,100695.41
2022-10-04T07:42:42.871Z,100693.31
2022-10-04T07:45:46.451Z,100698.88
2022-10-04T07:48:49.349Z,100684.63
2022-10-04T07:51:51.992Z,100677.78
2022-10-04T07:55:12.667Z,100679.38
2022-10-04T07:58:24.368Z,100672.62
2022-10-04T08:01:33.704Z,100666.12
2022-10-04T08:04:49.015Z,100674.69
2022-10-04T08:08:27.090Z,100666.63
2022-10-04T08:11:46.578Z,100660.72
2022-10-04T08:14:53.539Z,100684.06
2022-10-04T08:18:01.358Z,100685.13
2022-10-04T08:21:08.312Z,100693.22
2022-10-04T08:24:20.525Z,100692.34
2022-10-04T08:28:13.580Z,100699.34
2022-10-04T08:31:35.331Z,100713.75
2022-10-04T08:34:56.591Z,100705.91
2022-10-04T08:38:18.347Z,100720.84
2022-10-04T08:41:24.292Z,100718.09
2022-10-04T08:44:50.427Z,100721.44
2022-10-04T08:47:55.891Z,100720.47
2022-10-04T08:51:04.679Z,100715.91
2022-10-04T08:54:16.371Z,100720.31
2022-10-04T08:57:19.269Z,100736.28
2022-10-04T09:00:40.051Z,100733.59
2022-10-04T09:04:01.844Z,100725.81
2022-10-04T09:07:23.623Z,100719.69
2022-10-04T09:10:33.109Z,100723.25
2022-10-04T09:13:38.116Z,100725.22
2022-10-04T09:17:07.847Z,100712.09
2022-10-04T09:20:37.694Z,100688.13
2022-10-04T09:23:57.900Z,100708.94
2022-10-04T09:27:06.299Z,100717.31
2022-10-04T09:30:25.148Z,100714.34
2022-10-04T09:33:46.293Z,100717.88
2022-10-04T09:36:58.362Z,100713.12
2022-10-04T09:40:31.590Z,100719.81
2022-10-04T09:43:47.885Z,100733.28
2022-10-04T09:46:55.683Z,100729.78
2022-10-04T09:50:19.013Z,100727.09
2022-10-04T09:53:42.268Z,100726.22
2022-10-04T09:56:45.308Z,100739.50
2022-10-04T10:00:10.367Z,100740.38
2022-10-04T10:03:16.039Z,100746.47
2022-10-04T10:06:30.719Z,100746.38
2022-10-04T10:09:58.848Z,100748.91
2022-10-04T10:13:32.007Z,100754.88
2022-10-04T10:16:40.672Z,100745.00
2022-10-04T10:19:52.843Z,100757.28
2022-10-04T10:23:05.345Z,100763.47
2022-10-04T10:26:14.334Z,100754.78
2022-10-04T10:29:16.895Z,100761.88
2022-10-04T10:32:29.196Z,100754.94
2022-10-04T10:35:37.677Z,100755.16
2022-10-04T10:38:50.844Z,100767.69
2022-10-04T10:42:06.769Z,100755.44
2022-10-04T10:45:28.123Z,100751.03
2022-10-04T10:48:43.895Z,100749.22
2022-10-04T10:52:10.897Z,100752.72
2022-10-04T10:55:51.544Z,100744.50
2022-10-04T10:59:03.302Z,100741.66
2022-10-04T11:02:11.705Z,100743.66
2022-10-04T11:05:33.254Z,100739.34
2022-10-04T11:08:57.074Z,100745.81
2022-10-04T11:12:05.453Z,100750.81
2022-10-04T11:15:27.031Z,100741.87
2022-10-04T11:18:45.878Z,100735.63
2022-10-04T11:22:09.415Z,100740.34
2022-10-04T11:25:11.944Z,100730.09
2022-10-04T11:28:17.090Z,100739.25
2022-10-04T11:31:32.345Z,100748.87
2022-10-04T11:34:38.290Z,100737.41
2022-10-04T11:37:41.488Z,100743.81
2022-10-04T11:40:44.064Z,100742.28
2022-10-04T11:44:05.164Z,100748.16
2022-10-04T11:47:16.057Z,100746.72
2022-10-04T11:50:22.626Z,100751.44
2022-10-04T11:53:39.255Z,100746.34
2022-10-04T11:57:07.234Z,100746.44
2022-10-04T12:00:23.945Z,100746.56
2022-10-04T12:03:28.167Z,100747.47
2022-10-04T12:06:43.382Z,100750.00
2022-10-04T12:10:01.938Z,100751.94
2022-10-04T12:13:22.868Z,100734.41
2022-10-04T12:16:29.876Z,100742.03
2022-10-04T12:19:54.181Z,100751.38
2022-10-04T12:23:16.325Z,100742.47
2022-10-04T12:26:37.328Z,100746.34
2022-10-04T12:30:00.165Z,100743.03
2022-10-04T12:33:18.088Z,100743.91
2022-10-04T12:36:27.370Z,100736.34
2022-10-04T12:39:38.971Z,100736.41
2022-10-04T12:43:00.167Z,100732.06
2022-10-04T12:46:09.870Z,100741.00
2022-10-04T12:49:33.633Z,100739.78
2022-10-04T12:52:51.352Z,100746.47
2022-10-04T12:55:59.875Z,100752.72
2022-10-04T12:59:02.353Z,100747.12
2022-10-04T13:02:21.276Z,100737.41
2022-10-04T13:05:51.236Z,100750.03
2022-10-04T13:08:53.704Z,100746.72
2022-10-04T13:12:08.476Z,100743.16
2022-10-04T13:15:23.113Z,100748.34
2022-10-04T13:18:25.814Z,100739.56
2022-10-04T13:21:40.414Z,100743.72
2022-10-04T13:24:59.504Z,100733.25
2022-10-04T13:28:10.894Z,100742.47
2022-10-04T13:31:16.563Z,100740.44
2022-10-04T13:34:31.483Z,100752.31
2022-10-04T13:37:44.987Z,100747.22
2022-10-04T13:40:47.482Z,100753.62
2022-10-04T13:43:52.684Z,100754.69
2022-10-04T13:47:10.628Z,100750.34
2022-10-04T13:50:29.717Z,100742.44
2022-10-04T13:53:54.499Z,100751.50
2022-10-04T13:57:17.197Z,100749.06
2022-10-04T14:00:32.224Z,100752.03
2022-10-04T14:03:50.013Z,100758.44
2022-10-04T14:07:11.699Z,100763.06
2022-10-04T14:10:34.766Z,100773.81
2022-10-04T14:13:40.702Z,100773.88
2022-10-04T14:17:03.343Z,100776.63
2022-10-04T14:20:11.633Z,100778.44
2022-10-04T14:23:21.225Z,100785.47
2022-10-04T14:26:25.283Z,100787.22
2022-10-04T14:29:57.519Z,100785.34
2022-10-04T14:33:00.111Z,100780.84
2022-10-04T14:36:16.069Z,100786.88
2022-10-04T14:39:21.339Z,100791.12
2022-10-04T14:42:31.324Z,100784.78
2022-10-04T14:45:42.760Z,100797.84
2022-10-04T14:48:45.891Z,100799.41
2022-10-04T14:52:14.401Z,100788.69
2022-10-04T14:55:26.328Z,100792.06
2022-10-04T14:58:41.409Z,100798.94
2022-10-04T15:01:47.700Z,100808.34
2022-10-04T15:05:28.610Z,100805.63
2022-10-04T15:08:31.287Z,100819.56
2022-10-04T15:12:21.717Z,100822.88
2022-10-04T15:15:41.697Z,100815.66
2022-10-04T15:18:47.100Z,100822.34
2022-10-04T15:21:55.436Z,100822.91
2022-10-04T15:24:58.326Z,100828.91
2022-10-04T15:28:05.910Z,100830.66
2022-10-04T15:31:26.973Z,100836.78
2022-10-04T15:34:29.812Z,100839.16
2022-10-04T15:37:47.420Z,100839.03
2022-10-04T15:40:53.139Z,100840.47
2022-10-04T15:43:55.386Z,100840.34
2022-10-04T15:46:58.046Z,100840.16
2022-10-04T15:50:12.337Z,100843.56
2022-10-04T15:53:33.543Z,100840.91
2022-10-04T15:56:35.993Z,100853.09
2022-10-04T15:59:39.122Z,100853.06
2022-10-04T16:02:41.434Z,100862.38
2022-10-04T16:05:47.203Z,100861.63
2022-10-04T16:08:59.604Z,100867.47
2022-10-04T16:12:20.244Z,100878.75
2022-10-04T16:15:34.506Z,100875.06
2022-10-04T16:18:46.926Z,100887.31
2022-10-04T16:22:15.980Z,100887.09
2022-10-04T16:25:25.333Z,100894.91
2022-10-04T16:28:30.600Z,100901.59
2022-10-04T16:31:45.736Z,100898.84
2022-10-04T16:34:54.441Z,100900.44
2022-10-04T16:38:06.521Z,100900.19
2022-10-04T16:41:28.079Z,100902.69
2022-10-04T16:44:36.941Z,100901.81
2022-10-04T16:47:48.251Z,100899.59
2022-10-04T16:51:09.730Z,100904.69
2022-10-04T16:54:38.530Z,100915.22
2022-10-04T16:57:43.420Z,100922.63
2022-10-04T17:00:46.545Z,100919.00
2022-10-04T17:03:53.159Z,100918.66
2022-10-04T17:06:59.899Z,100930.75
2022-10-04T17:10:05.579Z,100936.78
2022-10-04T17:13:08.132Z,100939.28
2022-10-04T17:16:21.886Z,100947.16
2022-10-04T17:19:42.632Z,100938.22
2022-10-04T17:22:57.481Z,100947.66
2022-10-04T17:26:02.695Z,100946.69
2022-10-04T17:29:28.717Z,100950.91
2022-10-04T17:32:30.925Z,100955.16
2022-10-04T17:35:46.473Z,100955.09
2022-10-04T17:39:14.327Z,100966.31
2022-10-04T17:42:31.910Z,100969.00
2022-10-04T17:45:52.695Z,100974.88
2022-10-04T17:49:17.205Z,100980.75
2022-10-04T17:52:52.787Z,100974.47
2022-10-04T17:55:57.102Z,100984.84
2022-10-04T17:58:59.648Z,100987.34
2022-10-04T18:02:17.842Z,100987.28
2022-10-04T18:05:26.964Z,100991.50
2022-10-04T18:08:39.416Z,100987.91
2022-10-04T18:11:47.374Z,100991.19
2022-10-04T18:15:07.237Z,100984.09
2022-10-04T18:18:18.846Z,100992.72
2022-10-04T18:21:28.859Z,100990.84
2022-10-04T18:24:31.506Z,100999.44
2022-10-04T18:27:48.487Z,101002.03
2022-10-04T18:30:58.817Z,101001.03
2022-10-04T18:34:04.440Z,101005.41
2022-10-04T18:37:20.710Z,101006.22
2022-10-04T18:40:28.544Z,101013.25
2022-10-04T18:43:57.648Z,101014.00
2022-10-04T18:47:00.601Z,101012.12
2022-10-04T18:50:16.400Z,101019.00
2022-10-04T18:53:19.724Z,101022.28
2022-10-04T18:56:22.822Z,101029.38
2022-10-04T18:59:51.071Z,101032.66
2022-10-04T19:03:12.388Z,101041.28
2022-10-04T19:06:32.884Z,101043.56
2022-10-04T19:09:44.556Z,101039.88
2022-10-04T19:12:51.578Z,101045.12
2022-10-04T19:16:13.970Z,101049.44
2022-10-04T19:19:16.462Z,101045.94
2022-10-04T19:22:19.012Z,101051.88
2022-10-04T19:25:35.351Z,101056.12
2022-10-04T19:28:38.707Z,101056.81
2022-10-04T19:31:41.191Z,101062.88
2022-10-04T19:34:44.477Z,101062.81
2022-10-04T19:37:58.348Z,101070.50
2022-10-04T19:41:03.586Z,101071.28
2022-10-04T19:44:25.149Z,101075.53
2022-10-04T19:47:35.247Z,101077.25
2022-10-04T19:50:45.247Z,101090.25
2022-10-04T19:53:50.140Z,101088.22
2022-10-04T19:56:56.088Z,101089.72
2022-10-04T19:59:59.679Z,101087.97
2022-10-04T20:03:02.771Z,101093.84
2022-10-04T20:06:05.716Z,101092.72
2022-10-04T20:09:28.792Z,101101.44
2022-10-04T20:12:36.003Z,101106.66
2022-10-04T20:15:38.634Z,101114.41
2022-10-04T20:18:41.970Z,101110.72
2022-10-04T20:21:45.359Z,101105.41
2022-10-04T20:24:47.845Z,101104.41
2022-10-04T20:27:50.281Z,101111.34
2022-10-04T20:30:54.060Z,101117.50
2022-10-04T20:34:16.442Z,101123.34
2022-10-04T20:37:19.327Z,101119.53
2022-10-04T20:40:21.687Z,101127.16
2022-10-04T20:43:26.048Z,101125.16
2022-10-04T20:46:38.112Z,101128.50
2022-10-04T20:49:44.261Z,101125.81
2022-10-04T20:52:54.355Z,101133.59
2022-10-04T20:56:11.828Z,101131.66
2022-10-04T20:59:16.033Z,101139.44
2022-10-04T21:02:18.928Z,101141.00
2022-10-04T21:05:27.228Z,101137.50
2022-10-04T21:08:30.036Z,101140.09
2022-10-04T21:11:45.994Z,101140.88
2022-10-04T21:15:01.484Z,101144.31
2022-10-04T21:18:08.452Z,101146.81
2022-10-04T21:21:14.619Z,101150.12
2022-10-04T21:24:46.571Z,101150.00
2022-10-04T21:27:49.078Z,101141.06
2022-10-04T21:30:51.825Z,101154.69
2022-10-04T21:33:54.451Z,101159.59
2022-10-04T21:36:57.004Z,101158.59
2022-10-04T21:39:59.725Z,101161.94
2022-10-04T21:43:02.149Z,101157.59
2022-10-04T21:46:04.971Z,101168.19
2022-10-04T21:49:07.513Z,101165.50
2022-10-04T21:52:10.240Z,101169.78
2022-10-04T21:55:12.684Z,101171.44
2022-10-04T21:58:15.262Z,101177.50
2022-10-04T22:01:17.755Z,101188.59
2022-10-04T22:04:20.293Z,101176.31
2022-10-04T22:07:22.840Z,101181.47
2022-10-04T22:10:25.774Z,101186.63
2022-10-04T22:13:28.268Z,101186.53
2022-10-04T22:16:30.985Z,101186.31
2022-10-04T22:19:33.787Z,101193.28
2022-10-04T22:22:39.776Z,101187.84
2022-10-04T22:25:42.487Z,101187.59
2022-10-04T22:28:50.183Z,101188.28
2022-10-04T22:31:53.063Z,101188.06
2022-10-04T22:35:01.821Z,101198.38
2022-10-04T22:38:05.845Z,101199.19
2022-10-04T22:41:18.918Z,101192.03
2022-10-04T22:44:41.655Z,101201.53
2022-10-04T22:47:44.479Z,101196.97
2022-10-04T22:50:47.091Z,101208.19
2022-10-04T22:53:49.652Z,101212.41
2022-10-04T22:56:52.881Z,101214.97
2022-10-04T22:59:55.903Z,101218.28
2022-10-04T23:02:58.687Z,101215.50
2022-10-04T23:06:02.147Z,101214.00
2022-10-04T23:09:04.606Z,101214.91
2022-10-04T23:12:08.678Z,101215.81
2022-10-04T23:15:14.690Z,101214.84
2022-10-04T23:18:18.186Z,101218.28
2022-10-04T23:21:25.090Z,101216.47
2022-10-04T23:24:30.282Z,101223.25
2022-10-04T23:27:33.990Z,101224.84
2022-10-04T23:30:36.496Z,101237.03
2022-10-04T23:33:40.391Z,101234.09
2022-10-04T23:36:43.220Z,101239.25
2022-10-04T23:39:46.032Z,101236.47
2022-10-04T23:42:49.608Z,101241.62
2022-10-04T23:45:53.564Z,101248.56
2022-10-04T23:48:56.248Z,101247.69
2022-10-04T23:52:01.459Z,101252.75
2022-10-04T23:55:13.989Z,101250.06
2022-10-04T23:58:21.023Z,101252.91
